BAW41R EHAM-EGLL
Flight info
| Callsign | BAW41R |
|---|---|
| Flight time | N/A |
| Altitude | 24000 |
| Route | DCT IDRID L980 LOGAN LOGAN2H |
| Aircraft | A320/M-SDE3FGHIJ1RWXY/S |
Departure
| Time | 2026-05-01 15:32 |
|---|---|
| Airport | Amsterdam Airport Schiphol (EHAM) |
Arrival
| Time | N/A |
|---|---|
| Airport | London Heathrow Airport (EGLL) |
| Time | Latitude | Longitude | Altitude | Speed | Heading |
|---|---|---|---|---|---|
| 2026-05-01 15:02 | 52.30712 | 4.77089 | -1 ft | 0 kts | 3° |
| 2026-05-01 15:24 | 52.30702 | 4.77089 | -1 ft | 4 kts | 7° |
| 2026-05-01 15:24 | 52.30682 | 4.77080 | -1 ft | 4 kts | 14° |
| 2026-05-01 15:24 | 52.30667 | 4.77087 | -1 ft | 3 kts | 305° |
| 2026-05-01 15:25 | 52.30659 | 4.77107 | -1 ft | 0 kts | 303° |
| 2026-05-01 15:27 | 52.30660 | 4.77105 | -1 ft | 1 kts | 302° |
| 2026-05-01 15:27 | 52.30658 | 4.77049 | -1 ft | 8 kts | 265° |
| 2026-05-01 15:28 | 52.30570 | 4.77066 | -1 ft | 11 kts | 146° |
| 2026-05-01 15:28 | 52.30501 | 4.77137 | -1 ft | 11 kts | 149° |
| 2026-05-01 15:28 | 52.30478 | 4.77246 | -1 ft | 14 kts | 61° |
| 2026-05-01 15:29 | 52.30603 | 4.77555 | -1 ft | 19 kts | 34° |
| 2026-05-01 15:29 | 52.30741 | 4.77596 | -1 ft | 22 kts | 4° |
| 2026-05-01 15:29 | 52.31077 | 4.77627 | -1 ft | 26 kts | 3° |
| 2026-05-01 15:30 | 52.31450 | 4.77637 | -1 ft | 18 kts | 331° |
| 2026-05-01 15:31 | 52.31589 | 4.77963 | 0 ft | 8 kts | 127° |
| 2026-05-01 15:31 | 52.31558 | 4.77966 | 1 ft | 0 kts | 186° |
| 2026-05-01 15:32 | 52.30674 | 4.77880 | -1 ft | 128 kts | 183° |
| 2026-05-01 15:32 | 52.28523 | 4.77649 | 896 ft | 159 kts | 180° |
| 2026-05-01 15:33 | 52.24812 | 4.79101 | 2669 ft | 215 kts | 163° |
| 2026-05-01 15:34 | 52.20455 | 4.79445 | 5386 ft | 227 kts | 219° |